Ext Roig, Puerto Rico
Current Conditions -  °F | °C
As of 12:53 PM on Saturday 20 Dec 2014 (Local Time) from TJNR Reporting Station
Scattered Clouds Scattered Clouds  
Wind Chill: 82°   Ceiling: Unl
Heat Index: 86°   Visibility: 10mi
Dew Point: 70°   Wind: 8mph
Humidity: 67%   Direction: 60°ENE
Pressure: 30.04"   Gusts: NA
Location:  18.1494°N, 65.8294°W
Report Text: TJNR 201653Z AUTO 06007KT 10SM SCT030 28/21 A3004 RMK AO2 SLP173 T02780211 $
Loading
Personal Weather Stations






























Interactive Weather Map New forecast layout! Learn more

10-Day Weather Forecast

Advertisements
Track Severe Weather on mobile